createdAt,value
2018-06-15T00:00:40.255Z,62.40
2018-06-15T00:03:11.299Z,62.20
2018-06-15T00:05:42.338Z,61.70
2018-06-15T00:08:13.011Z,61.60
2018-06-15T00:10:43.685Z,62.10
2018-06-15T00:15:44.530Z,61.40
2018-06-15T00:18:15.259Z,61.20
2018-06-15T00:20:45.934Z,61.40
2018-06-15T00:23:16.616Z,61.30
2018-06-15T00:25:47.665Z,61.80
2018-06-15T00:28:18.358Z,61.80
2018-06-15T00:30:49.013Z,62.10
2018-06-15T00:33:20.085Z,61.50
2018-06-15T00:35:50.787Z,61.20
2018-06-15T00:38:21.463Z,62.00
2018-06-15T00:40:52.116Z,62.10
2018-06-15T00:43:22.857Z,61.30
2018-06-15T00:45:53.988Z,62.10
2018-06-15T00:48:24.709Z,62.20
2018-06-15T00:50:55.357Z,61.90
2018-06-15T00:53:26.049Z,62.20
2018-06-15T00:55:56.703Z,62.10
2018-06-15T01:00:57.686Z,62.10
2018-06-15T01:03:28.431Z,62.00
2018-06-15T01:05:59.346Z,62.00
2018-06-15T01:08:30.078Z,62.10
2018-06-15T01:11:00.801Z,62.00
2018-06-15T01:13:31.494Z,62.00
2018-06-15T01:16:02.563Z,62.10
2018-06-15T01:18:33.320Z,62.10
2018-06-15T01:21:03.994Z,62.00
2018-06-15T01:23:34.773Z,62.10
2018-06-15T01:26:05.499Z,62.10
2018-06-15T01:28:36.582Z,62.50
2018-06-15T01:31:07.622Z,62.60
2018-06-15T01:36:08.190Z,63.30
2018-06-15T01:38:39.317Z,63.10
2018-06-15T01:41:10.393Z,63.30
2018-06-15T01:43:41.086Z,64.40
2018-06-15T01:46:11.801Z,64.10
2018-06-15T01:48:42.506Z,64.00
2018-06-15T01:51:13.142Z,64.40
2018-06-15T01:53:43.834Z,64.70
2018-06-15T01:56:14.498Z,64.90
2018-06-15T01:58:45.619Z,65.00
2018-06-15T02:01:16.803Z,65.30
2018-06-15T02:03:47.558Z,65.20
2018-06-15T02:06:18.277Z,65.20
2018-06-15T02:08:49.038Z,66.00
2018-06-15T02:13:50.292Z,65.80
2018-06-15T02:16:21.038Z,66.20
2018-06-15T02:18:51.758Z,66.10
2018-06-15T02:21:22.506Z,66.10
2018-06-15T02:23:53.145Z,66.40
2018-06-15T02:26:23.893Z,66.20
2018-06-15T02:28:54.579Z,66.20
2018-06-15T02:33:56.074Z,65.80
2018-06-15T02:36:27.072Z,65.70
2018-06-15T02:38:58.441Z,65.70
2018-06-15T02:41:30.414Z,65.80
2018-06-15T02:44:01.486Z,65.80
2018-06-15T02:46:33.417Z,65.80
2018-06-15T02:49:04.504Z,65.90
2018-06-15T02:51:37.386Z,65.80
2018-06-15T02:54:09.884Z,66.00
2018-06-15T02:56:40.706Z,66.00
2018-06-15T02:59:11.752Z,66.00
2018-06-15T03:01:44.510Z,66.10
2018-06-15T03:04:17.617Z,66.20
2018-06-15T03:06:49.833Z,66.30
2018-06-15T03:09:20.866Z,66.40
2018-06-15T03:11:52.990Z,66.40
2018-06-15T03:14:24.818Z,66.40
2018-06-15T03:16:57.821Z,66.50
2018-06-15T03:19:30.249Z,66.60
2018-06-15T03:22:02.370Z,66.50
2018-06-15T03:24:36.137Z,66.60
2018-06-15T03:27:07.994Z,66.50
2018-06-15T03:29:40.354Z,66.30
2018-06-15T03:32:11.261Z,66.00
2018-06-15T03:37:18.274Z,65.80
2018-06-15T03:39:50.239Z,65.60
2018-06-15T03:42:24.545Z,65.30
2018-06-15T03:47:26.898Z,65.00
2018-06-15T03:49:57.933Z,64.60
2018-06-15T03:52:29.062Z,64.40
2018-06-15T03:55:01.848Z,64.20
2018-06-15T03:57:33.237Z,64.20
2018-06-15T04:00:09.013Z,63.80
2018-06-15T04:05:10.902Z,63.00
2018-06-15T04:10:13.381Z,61.90
2018-06-15T04:12:46.339Z,61.60
2018-06-15T04:15:18.048Z,62.50
2018-06-15T04:22:56.566Z,62.60
2018-06-15T04:25:27.198Z,61.50
2018-06-15T04:28:00.259Z,61.70
2018-06-15T04:30:31.714Z,61.50
2018-06-15T04:33:02.892Z,61.50
2018-06-15T04:35:34.031Z,61.50
2018-06-15T04:38:06.435Z,61.60
2018-06-15T04:40:38.002Z,61.50
2018-06-15T04:45:41.034Z,61.00
2018-06-15T04:48:12.301Z,61.20
2018-06-15T04:50:44.089Z,60.80
2018-06-15T04:53:16.894Z,60.70
2018-06-15T04:55:48.042Z,60.70
2018-06-15T05:00:49.865Z,60.20
2018-06-15T05:03:21.632Z,60.00
2018-06-15T05:05:53.135Z,60.00
2018-06-15T05:08:24.801Z,60.00
2018-06-15T05:10:57.807Z,59.30
2018-06-15T05:13:34.252Z,58.50
2018-06-15T05:16:05.619Z,57.90
2018-06-15T05:18:36.667Z,57.90
2018-06-15T05:23:38.786Z,58.00
2018-06-15T05:26:09.862Z,57.90
2018-06-15T05:28:43.049Z,57.50
2018-06-15T05:31:14.750Z,57.30
2018-06-15T05:33:45.754Z,57.20
2018-06-15T05:36:16.821Z,56.80
2018-06-15T05:41:18.087Z,56.90
2018-06-15T05:43:50.121Z,56.70
2018-06-15T05:46:22.992Z,56.50
2018-06-15T05:48:55.479Z,55.60
2018-06-15T05:51:27.081Z,55.30
2018-06-15T05:53:59.022Z,53.30
2018-06-15T05:56:35.774Z,52.60
2018-06-15T05:59:06.960Z,52.60
2018-06-15T06:01:38.748Z,52.60
2018-06-15T06:06:41.025Z,51.70
2018-06-15T06:11:42.672Z,48.70
2018-06-15T06:14:18.419Z,49.50
2018-06-15T06:16:50.518Z,48.40
2018-06-15T06:21:51.865Z,50.00
2018-06-15T06:24:24.042Z,45.70
2018-06-15T06:26:56.061Z,48.00
2018-06-15T06:29:28.042Z,48.20
2018-06-15T06:32:00.020Z,47.20
2018-06-15T06:34:33.020Z,46.80
2018-06-15T06:37:04.536Z,45.70
2018-06-15T06:39:35.996Z,46.30
2018-06-15T06:42:07.661Z,46.00
2018-06-15T06:44:40.557Z,46.80
2018-06-15T06:47:13.185Z,46.30
2018-06-15T06:52:16.205Z,46.70
2018-06-15T06:54:48.660Z,46.30
2018-06-15T06:59:51.493Z,44.20
2018-06-15T07:02:24.383Z,45.00
2018-06-15T07:04:55.603Z,44.80
2018-06-15T07:07:27.745Z,43.80
2018-06-15T07:09:59.654Z,43.60
2018-06-15T07:12:35.385Z,44.30
2018-06-15T07:15:07.913Z,44.50
2018-06-15T07:17:40.666Z,44.60
2018-06-15T07:25:13.942Z,42.30
2018-06-15T07:27:44.812Z,41.60
2018-06-15T07:30:16.909Z,42.40
2018-06-15T07:32:48.956Z,42.90
2018-06-15T07:40:23.279Z,42.60
2018-06-15T07:42:55.930Z,43.10
2018-06-15T07:45:28.476Z,42.80
2018-06-15T07:47:59.426Z,43.20
2018-06-15T07:53:02.405Z,41.90
2018-06-15T07:55:34.162Z,43.10
2018-06-15T07:58:07.262Z,42.80
2018-06-15T08:03:09.836Z,42.60
2018-06-15T08:05:41.710Z,41.70
2018-06-15T08:08:12.881Z,40.80
2018-06-15T08:10:43.827Z,41.40
2018-06-15T08:13:15.962Z,41.50
2018-06-15T08:15:47.877Z,42.30
2018-06-15T08:18:19.774Z,42.30
2018-06-15T08:20:53.383Z,39.50
2018-06-15T08:23:25.684Z,40.50
2018-06-15T08:25:57.163Z,40.30
2018-06-15T08:28:29.042Z,40.30
2018-06-15T08:31:00.436Z,40.80
2018-06-15T08:33:31.836Z,40.50
2018-06-15T08:36:03.192Z,40.40
2018-06-15T08:38:35.555Z,40.30
2018-06-15T08:41:07.002Z,40.30
2018-06-15T08:46:08.496Z,39.70
2018-06-15T08:48:40.150Z,39.70
2018-06-15T08:51:12.609Z,39.20
2018-06-15T08:58:45.665Z,40.60
2018-06-15T09:01:16.864Z,39.60
2018-06-15T09:03:48.218Z,39.50
2018-06-15T09:06:19.489Z,39.10
2018-06-15T09:08:51.760Z,39.40
2018-06-15T09:11:23.188Z,39.60
2018-06-15T09:13:56.395Z,39.50
2018-06-15T09:18:59.657Z,39.30
2018-06-15T09:21:31.194Z,39.50
2018-06-15T09:24:02.763Z,39.60
2018-06-15T09:26:34.917Z,39.50
2018-06-15T09:29:06.655Z,39.00
2018-06-15T09:36:42.139Z,38.30
2018-06-15T09:39:14.364Z,38.00
2018-06-15T09:41:46.284Z,38.40
2018-06-15T09:49:19.236Z,37.80
2018-06-15T09:51:50.788Z,37.50
2018-06-15T09:54:22.706Z,38.20
2018-06-15T09:56:55.053Z,37.90
2018-06-15T09:59:26.506Z,37.60
2018-06-15T10:01:57.855Z,37.20
2018-06-15T10:04:29.216Z,36.20
2018-06-15T10:07:02.279Z,37.70
2018-06-15T10:09:33.858Z,38.10
2018-06-15T10:12:05.136Z,37.50
2018-06-15T10:14:37.042Z,37.00
2018-06-15T10:17:09.402Z,36.50
2018-06-15T10:22:13.392Z,37.70
2018-06-15T10:24:44.642Z,38.30
2018-06-15T10:27:16.071Z,37.90
2018-06-15T10:29:47.032Z,37.50
2018-06-15T10:32:18.483Z,36.70
2018-06-15T10:34:51.241Z,36.70
2018-06-15T10:37:22.690Z,37.00
2018-06-15T10:39:53.934Z,37.00
2018-06-15T10:42:25.446Z,36.70
2018-06-15T10:44:57.593Z,37.20
2018-06-15T10:47:28.978Z,36.60
2018-06-15T10:50:01.041Z,36.80
2018-06-15T10:52:32.357Z,36.60
2018-06-15T10:55:03.855Z,37.10
2018-06-15T11:02:37.439Z,33.70
2018-06-15T11:05:08.781Z,35.00
2018-06-15T11:07:40.268Z,34.80
2018-06-15T11:10:11.600Z,35.60
2018-06-15T11:12:43.105Z,35.80
2018-06-15T11:17:46.148Z,35.00
2018-06-15T11:20:18.289Z,34.90
2018-06-15T11:25:20.938Z,34.20
2018-06-15T11:27:52.905Z,35.20
2018-06-15T11:30:25.029Z,35.10
2018-06-15T11:35:30.994Z,34.30
2018-06-15T11:43:04.185Z,33.20
2018-06-15T11:45:35.633Z,33.90
2018-06-15T11:48:07.798Z,33.10
2018-06-15T11:50:39.100Z,33.80
2018-06-15T11:55:41.243Z,34.40
2018-06-15T11:58:12.940Z,34.20
2018-06-15T12:03:17.204Z,33.60
2018-06-15T12:08:22.689Z,33.90
2018-06-15T12:10:54.634Z,33.40
2018-06-15T12:13:27.320Z,33.60
2018-06-15T12:21:03.892Z,32.90
2018-06-15T12:23:36.361Z,32.60
2018-06-15T12:26:09.577Z,33.00
2018-06-15T12:28:41.486Z,33.30
2018-06-15T12:31:14.520Z,32.90
2018-06-15T12:33:46.425Z,33.40
2018-06-15T12:36:18.241Z,33.40
2018-06-15T12:38:50.603Z,33.50
2018-06-15T12:41:21.859Z,33.80
2018-06-15T12:43:54.380Z,32.70
2018-06-15T12:46:28.090Z,33.40
2018-06-15T12:48:59.995Z,31.90
2018-06-15T12:51:34.692Z,31.90
2018-06-15T12:54:08.389Z,32.60
2018-06-15T12:56:40.459Z,32.50
2018-06-15T12:59:14.173Z,32.60
2018-06-15T13:01:48.125Z,32.60
2018-06-15T13:04:21.318Z,32.60
2018-06-15T13:06:53.764Z,32.40
2018-06-15T13:09:26.052Z,31.70
2018-06-15T13:11:57.490Z,32.70
2018-06-15T13:14:30.844Z,31.50
2018-06-15T13:17:04.533Z,31.20
2018-06-15T13:19:36.243Z,31.80
2018-06-15T13:22:09.231Z,31.40
2018-06-15T13:24:42.046Z,31.80
2018-06-15T13:27:13.910Z,32.20
2018-06-15T13:29:45.788Z,32.20
2018-06-15T13:32:18.513Z,31.50
2018-06-15T13:34:51.711Z,31.50
2018-06-15T13:37:23.566Z,31.00
2018-06-15T13:39:56.878Z,31.10
2018-06-15T13:42:29.912Z,31.10
2018-06-15T13:45:03.685Z,31.30
2018-06-15T13:47:35.358Z,31.60
2018-06-15T13:50:09.424Z,31.60
2018-06-15T13:52:41.967Z,31.90
2018-06-15T13:55:15.251Z,31.30
2018-06-15T13:57:47.564Z,30.30
2018-06-15T14:02:50.640Z,31.00
2018-06-15T14:05:22.146Z,31.00
2018-06-15T14:07:53.864Z,31.50
2018-06-15T14:10:26.042Z,31.10
2018-06-15T14:12:57.749Z,31.20
2018-06-15T14:15:29.444Z,31.10
2018-06-15T14:18:01.059Z,31.10
2018-06-15T14:20:33.071Z,30.70
2018-06-15T14:23:04.487Z,30.40
2018-06-15T14:25:36.034Z,30.30
2018-06-15T14:28:08.472Z,30.40
2018-06-15T14:33:10.439Z,30.20
2018-06-15T14:35:41.923Z,30.00
2018-06-15T14:40:44.293Z,29.70
2018-06-15T14:43:15.703Z,30.20
2018-06-15T14:45:47.049Z,29.80
2018-06-15T14:48:18.533Z,29.30
2018-06-15T14:50:50.235Z,29.60
2018-06-15T14:53:21.910Z,29.00
2018-06-15T14:55:54.244Z,29.70
2018-06-15T14:58:25.251Z,30.00
2018-06-15T15:00:56.814Z,29.60
2018-06-15T15:03:28.457Z,29.40
2018-06-15T15:05:59.511Z,29.60
2018-06-15T15:08:31.430Z,30.20
2018-06-15T15:13:36.330Z,30.10
2018-06-15T15:18:38.676Z,31.30
2018-06-15T15:23:43.319Z,31.80
2018-06-15T15:31:39.461Z,32.50
2018-06-15T15:36:43.516Z,32.30
2018-06-15T15:41:46.386Z,31.90
2018-06-15T15:44:17.862Z,32.20
2018-06-15T15:46:49.657Z,32.20
2018-06-15T15:49:21.099Z,32.20
2018-06-15T15:54:23.046Z,32.20
2018-06-15T15:56:56.467Z,31.60
2018-06-15T16:02:01.838Z,31.80
2018-06-15T16:07:05.035Z,31.90
2018-06-15T16:14:39.561Z,31.80
2018-06-15T16:17:13.622Z,31.50
2018-06-15T16:22:18.152Z,31.40
2018-06-15T16:27:24.471Z,31.30
2018-06-15T16:29:56.926Z,30.80
2018-06-15T16:35:00.780Z,31.30
2018-06-15T16:37:32.379Z,31.70
2018-06-15T16:40:05.490Z,31.50
2018-06-15T16:42:37.490Z,31.90
2018-06-15T16:45:10.226Z,32.50
2018-06-15T16:47:44.621Z,32.40
2018-06-15T16:50:16.743Z,32.60
2018-06-15T16:57:51.182Z,33.00
2018-06-15T17:00:22.804Z,32.90
2018-06-15T17:02:56.413Z,32.70
2018-06-15T17:05:28.936Z,33.00
2018-06-15T17:08:00.992Z,33.00
2018-06-15T17:10:32.467Z,33.20
2018-06-15T17:13:03.959Z,33.40
2018-06-15T17:15:35.842Z,33.10
2018-06-15T17:18:07.847Z,33.00
2018-06-15T17:23:13.283Z,33.20
2018-06-15T17:25:45.254Z,33.60
2018-06-15T17:28:17.751Z,33.60
2018-06-15T17:30:52.006Z,33.70
2018-06-15T17:33:23.769Z,33.10
2018-06-15T17:35:55.616Z,33.70
2018-06-15T17:38:31.350Z,34.00
2018-06-15T17:41:03.970Z,34.40
2018-06-15T17:43:37.415Z,33.70
2018-06-15T17:46:11.428Z,33.70
2018-06-15T17:56:21.694Z,34.00
2018-06-15T17:58:56.119Z,34.00
2018-06-15T18:01:28.176Z,34.20
2018-06-15T18:03:59.836Z,33.90
2018-06-15T18:06:33.248Z,33.70
2018-06-15T18:09:06.223Z,33.70
2018-06-15T18:11:37.914Z,33.70
2018-06-15T18:14:10.521Z,33.90
2018-06-15T18:16:43.462Z,34.00
2018-06-15T18:19:17.521Z,33.90
2018-06-15T18:24:23.834Z,33.50
2018-06-15T18:26:55.571Z,33.40
2018-06-15T18:32:01.236Z,34.20
2018-06-15T18:37:05.683Z,33.90
2018-06-15T18:39:37.276Z,33.50
2018-06-15T18:42:09.961Z,33.60
2018-06-15T18:44:43.174Z,33.60
2018-06-15T18:47:14.870Z,33.90
2018-06-15T18:49:46.570Z,33.80
2018-06-15T18:52:19.166Z,33.40
2018-06-15T18:54:50.559Z,33.50
2018-06-15T18:57:22.053Z,33.80
2018-06-15T18:59:53.785Z,34.00
2018-06-15T19:04:56.878Z,34.40
2018-06-15T19:07:28.387Z,34.30
2018-06-15T19:10:00.589Z,34.40
2018-06-15T19:12:32.199Z,34.60
2018-06-15T19:15:04.278Z,34.60
2018-06-15T19:17:35.871Z,34.70
2018-06-15T19:20:07.537Z,34.80
2018-06-15T19:22:39.371Z,34.80
2018-06-15T19:25:11.385Z,35.60
2018-06-15T19:32:44.550Z,35.70
2018-06-15T19:35:15.974Z,35.60
2018-06-15T19:40:18.590Z,35.50
2018-06-15T19:45:21.453Z,35.30
2018-06-15T19:47:53.051Z,35.20
2018-06-15T19:52:54.682Z,35.70
2018-06-15T19:55:25.886Z,35.90
2018-06-15T19:57:59.002Z,36.00
2018-06-15T20:00:29.806Z,36.30
2018-06-15T20:03:03.100Z,36.40
2018-06-15T20:05:34.030Z,36.60
2018-06-15T20:10:38.057Z,36.80
2018-06-15T20:15:40.278Z,37.90
2018-06-15T20:18:12.574Z,37.40
2018-06-15T20:20:45.196Z,37.60
2018-06-15T20:25:48.222Z,37.50
2018-06-15T20:30:53.828Z,38.60
2018-06-15T20:33:25.169Z,38.90
2018-06-15T20:35:57.028Z,39.10
2018-06-15T20:38:30.099Z,39.50
2018-06-15T20:41:02.109Z,39.80
2018-06-15T20:43:35.166Z,40.10
2018-06-15T20:46:06.211Z,40.30
2018-06-15T20:48:39.022Z,40.60
2018-06-15T20:51:10.491Z,40.70
2018-06-15T20:53:41.976Z,41.10
2018-06-15T20:58:45.104Z,41.50
2018-06-15T21:01:17.061Z,41.80
2018-06-15T21:03:49.566Z,42.10
2018-06-15T21:06:21.587Z,42.30
2018-06-15T21:08:52.566Z,42.90
2018-06-15T21:11:26.491Z,42.80
2018-06-15T21:13:58.441Z,42.80
2018-06-15T21:16:30.888Z,43.10
2018-06-15T21:19:02.064Z,43.60
2018-06-15T21:21:33.272Z,43.10
2018-06-15T21:26:35.763Z,44.40
2018-06-15T21:29:06.907Z,44.70
2018-06-15T21:31:38.092Z,44.80
2018-06-15T21:36:41.063Z,45.30
2018-06-15T21:39:11.825Z,45.40
2018-06-15T21:44:13.461Z,45.90
2018-06-15T21:46:44.894Z,45.90
2018-06-15T21:49:16.886Z,46.60
2018-06-15T21:51:49.937Z,46.10
2018-06-15T21:54:22.745Z,46.20
2018-06-15T21:56:55.064Z,46.20
2018-06-15T22:01:58.278Z,46.50
2018-06-15T22:04:29.254Z,46.30
2018-06-15T22:07:00.345Z,46.30
2018-06-15T22:09:31.359Z,46.50
2018-06-15T22:12:03.000Z,46.70
2018-06-15T22:14:34.360Z,46.70
2018-06-15T22:17:05.661Z,46.70
2018-06-15T22:19:37.393Z,46.70
2018-06-15T22:22:10.122Z,46.90
2018-06-15T22:24:41.652Z,47.00
2018-06-15T22:29:44.811Z,47.30
2018-06-15T22:32:16.268Z,47.40
2018-06-15T22:34:48.557Z,47.50
2018-06-15T22:37:21.173Z,47.70
2018-06-15T22:39:52.687Z,47.80
2018-06-15T22:42:24.670Z,47.90
2018-06-15T22:44:56.375Z,48.00
2018-06-15T22:52:28.968Z,48.60
2018-06-15T22:55:00.556Z,48.80
2018-06-15T22:57:33.244Z,48.90
2018-06-15T23:00:05.169Z,49.00
2018-06-15T23:02:36.937Z,49.20
2018-06-15T23:10:10.712Z,49.50
2018-06-15T23:12:42.686Z,50.40
2018-06-15T23:15:14.639Z,50.00
2018-06-15T23:17:46.405Z,50.20
2018-06-15T23:20:18.455Z,50.40
2018-06-15T23:25:23.565Z,50.50
2018-06-15T23:27:55.887Z,50.40
2018-06-15T23:33:02.120Z,50.80
2018-06-15T23:35:37.066Z,51.00
2018-06-15T23:38:10.214Z,51.30
2018-06-15T23:40:42.905Z,51.50
2018-06-15T23:43:15.583Z,51.60
2018-06-15T23:45:48.828Z,51.80
2018-06-15T23:48:21.060Z,51.80
2018-06-15T23:50:55.913Z,51.90
2018-06-15T23:53:29.129Z,52.00
2018-06-15T23:56:01.556Z,52.10
2018-06-15T23:58:36.188Z,52.10
